createdAt,value
2022-11-10T00:00:09.934Z,91.47
2022-11-10T00:05:39.977Z,92.07
2022-11-10T00:11:01.536Z,92.88
2022-11-10T00:16:29.682Z,94.34
2022-11-10T00:21:38.105Z,96.16
2022-11-10T00:26:46.228Z,97.92
2022-11-10T00:31:53.480Z,99.42
2022-11-10T00:37:01.153Z,100.00
2022-11-10T00:42:09.074Z,100.00
2022-11-10T00:47:16.120Z,100.00
2022-11-10T00:52:23.408Z,100.00
2022-11-10T00:59:45.263Z,100.00
2022-11-10T01:04:52.732Z,100.00
2022-11-10T01:10:00.226Z,100.00
2022-11-10T01:15:08.785Z,100.00
2022-11-10T01:20:16.241Z,100.00
2022-11-10T01:25:24.497Z,100.00
2022-11-10T01:30:32.243Z,100.00
2022-11-10T01:35:39.451Z,100.00
2022-11-10T01:40:47.019Z,100.00
2022-11-10T01:45:56.497Z,99.96
2022-11-10T01:51:08.490Z,99.78
2022-11-10T01:56:17.614Z,99.71
2022-11-10T02:01:25.721Z,99.39
2022-11-10T02:06:35.645Z,98.24
2022-11-10T02:11:44.397Z,97.87
2022-11-10T02:16:51.596Z,98.36
2022-11-10T02:22:00.278Z,98.27
2022-11-10T02:27:07.274Z,98.64
2022-11-10T02:32:14.679Z,98.48
2022-11-10T02:37:21.764Z,99.16
2022-11-10T02:42:27.635Z,99.45
2022-11-10T02:47:34.713Z,99.39
2022-11-10T02:52:40.519Z,99.62
2022-11-10T02:57:47.558Z,99.95
2022-11-10T03:02:58.789Z,100.00
2022-11-10T03:18:07.479Z,99.48
2022-11-10T03:23:14.994Z,99.71
2022-11-10T03:28:23.021Z,99.49
2022-11-10T03:33:30.310Z,99.22
2022-11-10T03:38:37.819Z,99.09
2022-11-10T03:43:43.392Z,99.21
2022-11-10T03:48:53.636Z,98.08
2022-11-10T03:54:01.397Z,97.52
2022-11-10T03:59:09.387Z,98.27
2022-11-10T04:04:30.519Z,98.77
2022-11-10T04:09:37.709Z,99.01
2022-11-10T04:15:02.427Z,99.34
2022-11-10T04:20:12.142Z,99.73
2022-11-10T04:25:19.227Z,100.00
2022-11-10T04:30:26.688Z,100.00
2022-11-10T04:35:34.205Z,100.00
2022-11-10T04:40:39.919Z,100.00
2022-11-10T04:45:49.823Z,100.00
2022-11-10T04:50:57.535Z,100.00
2022-11-10T04:56:04.640Z,100.00
2022-11-10T05:01:14.094Z,100.00
2022-11-10T05:06:21.095Z,100.00
2022-11-10T05:11:28.695Z,100.00
2022-11-10T05:16:35.902Z,100.00
2022-11-10T05:21:43.085Z,100.00
2022-11-10T05:26:48.511Z,100.00
2022-11-10T05:31:55.763Z,100.00
2022-11-10T05:37:03.318Z,100.00
2022-11-10T05:42:10.555Z,100.00
2022-11-10T05:47:17.917Z,100.00
2022-11-10T05:52:25.290Z,100.00
2022-11-10T05:57:32.807Z,100.00
2022-11-10T06:02:40.476Z,100.00
2022-11-10T06:07:47.580Z,100.00
2022-11-10T06:12:55.241Z,100.00
2022-11-10T06:18:02.420Z,100.00
2022-11-10T06:23:08.568Z,100.00
2022-11-10T06:28:15.938Z,100.00
2022-11-10T06:33:23.676Z,100.00
2022-11-10T06:38:31.199Z,100.00
2022-11-10T06:43:38.058Z,100.00
2022-11-10T06:48:45.295Z,100.00
2022-11-10T06:59:31.217Z,100.00
2022-11-10T07:04:38.350Z,100.00
2022-11-10T07:09:43.789Z,100.00
2022-11-10T07:14:50.667Z,100.00
2022-11-10T07:19:57.839Z,100.00
2022-11-10T07:25:05.679Z,100.00
2022-11-10T07:30:15.041Z,100.00
2022-11-10T07:35:22.335Z,100.00
2022-11-10T07:40:30.585Z,100.00
2022-11-10T07:45:37.549Z,100.00
2022-11-10T07:50:44.864Z,100.00
2022-11-10T07:55:52.532Z,100.00
2022-11-10T08:01:00.275Z,100.00
2022-11-10T08:06:08.757Z,100.00
2022-11-10T08:11:15.909Z,100.00
2022-11-10T08:16:23.012Z,100.00
2022-11-10T08:21:30.367Z,100.00
2022-11-10T08:26:38.436Z,100.00
2022-11-10T08:31:46.356Z,100.00
2022-11-10T08:36:54.390Z,100.00
2022-11-10T08:42:01.893Z,100.00
2022-11-10T08:47:09.214Z,100.00
2022-11-10T08:52:16.160Z,100.00
2022-11-10T08:57:23.412Z,100.00
2022-11-10T09:02:30.766Z,100.00
2022-11-10T09:07:46.033Z,100.00
2022-11-10T09:12:53.063Z,100.00
2022-11-10T09:18:03.017Z,100.00
2022-11-10T09:23:11.699Z,100.00
2022-11-10T09:28:20.308Z,100.00
2022-11-10T09:33:27.709Z,100.00
2022-11-10T09:38:35.569Z,100.00
2022-11-10T09:43:46.970Z,100.00
2022-11-10T09:48:57.624Z,100.00
2022-11-10T09:54:08.183Z,100.00
2022-11-10T09:59:23.679Z,100.00
2022-11-10T10:04:51.675Z,100.00
2022-11-10T10:10:05.563Z,100.00
2022-11-10T10:15:25.496Z,100.00
2022-11-10T10:20:43.659Z,100.00
2022-11-10T10:25:53.640Z,100.00
2022-11-10T10:31:13.679Z,100.00
2022-11-10T10:36:24.734Z,100.00
2022-11-10T10:41:34.822Z,100.00
2022-11-10T10:46:50.259Z,100.00
2022-11-10T10:52:08.339Z,100.00
2022-11-10T10:57:25.751Z,100.00
2022-11-10T11:02:34.154Z,100.00
2022-11-10T11:07:41.508Z,100.00
2022-11-10T11:12:48.602Z,99.92
2022-11-10T11:18:00.214Z,99.63
2022-11-10T11:23:15.029Z,99.39
2022-11-10T11:28:30.629Z,99.88
2022-11-10T11:33:43.564Z,100.00
2022-11-10T11:38:59.945Z,100.00
2022-11-10T11:44:28.765Z,100.00
2022-11-10T11:50:08.912Z,100.00
2022-11-10T11:55:31.384Z,100.00
2022-11-10T12:00:52.409Z,100.00
2022-11-10T12:06:15.740Z,100.00
2022-11-10T12:11:32.867Z,100.00
2022-11-10T12:16:43.428Z,100.00
2022-11-10T12:21:55.816Z,100.00
2022-11-10T12:27:10.483Z,99.94
2022-11-10T12:32:23.760Z,99.79
2022-11-10T12:37:36.565Z,99.51
2022-11-10T12:42:46.107Z,99.19
2022-11-10T12:47:54.568Z,98.55
2022-11-10T12:53:04.746Z,98.81
2022-11-10T12:58:15.185Z,98.69
2022-11-10T13:03:32.035Z,98.55
2022-11-10T13:08:50.123Z,98.44
2022-11-10T13:14:00.833Z,98.15
2022-11-10T13:19:09.645Z,97.69
2022-11-10T13:24:28.671Z,97.00
2022-11-10T13:29:54.994Z,97.03
2022-11-10T13:35:32.917Z,97.26
2022-11-10T13:40:41.244Z,97.23
2022-11-10T13:45:49.318Z,97.12
2022-11-10T13:51:08.552Z,97.15
2022-11-10T13:56:26.096Z,96.88
2022-11-10T14:01:34.172Z,96.54
2022-11-10T14:06:49.572Z,96.40
2022-11-10T14:12:02.149Z,96.15
2022-11-10T14:17:20.295Z,95.64
2022-11-10T14:22:33.527Z,95.92
2022-11-10T14:27:42.022Z,96.25
2022-11-10T14:32:59.167Z,95.99
2022-11-10T14:38:05.702Z,96.30
2022-11-10T14:48:59.823Z,96.53
2022-11-10T14:54:07.605Z,96.46
2022-11-10T14:59:16.458Z,96.23
2022-11-10T15:04:31.155Z,96.16
2022-11-10T15:09:38.730Z,96.24
2022-11-10T15:14:48.769Z,96.13
2022-11-10T15:19:59.075Z,95.87
2022-11-10T15:25:19.181Z,95.68
2022-11-10T15:30:27.649Z,95.54
2022-11-10T15:35:34.832Z,95.19
2022-11-10T15:40:48.713Z,95.38
2022-11-10T15:45:59.966Z,95.23
2022-11-10T15:51:10.102Z,95.10
2022-11-10T15:56:19.666Z,95.48
2022-11-10T16:01:27.640Z,95.14
2022-11-10T16:06:34.957Z,95.20
2022-11-10T16:11:44.637Z,94.82
2022-11-10T16:16:52.169Z,94.58
2022-11-10T16:22:00.049Z,94.56
2022-11-10T16:27:12.214Z,94.45
2022-11-10T16:32:19.421Z,94.03
2022-11-10T16:37:26.451Z,93.96
2022-11-10T16:42:33.775Z,93.60
2022-11-10T16:47:41.053Z,93.96
2022-11-10T16:52:48.408Z,93.53
2022-11-10T16:57:55.501Z,93.58
2022-11-10T17:03:07.616Z,93.94
2022-11-10T17:08:22.125Z,93.79
2022-11-10T17:13:30.215Z,93.74
2022-11-10T17:18:40.994Z,93.54
2022-11-10T17:23:48.394Z,93.56
2022-11-10T17:28:55.866Z,93.67
2022-11-10T17:34:03.420Z,94.03
2022-11-10T17:39:13.858Z,94.76
2022-11-10T17:44:21.807Z,95.28
2022-11-10T17:49:28.893Z,95.32
2022-11-10T17:54:36.424Z,95.37
2022-11-10T17:59:43.641Z,95.56
2022-11-10T18:04:50.919Z,95.35
2022-11-10T18:09:58.031Z,94.75
2022-11-10T18:15:05.545Z,94.35
2022-11-10T18:20:15.177Z,94.87
2022-11-10T18:25:22.733Z,95.25
2022-11-10T18:30:34.941Z,95.50
2022-11-10T18:35:43.713Z,95.86
2022-11-10T18:40:51.177Z,96.20
2022-11-10T18:45:58.866Z,96.13
2022-11-10T18:51:09.367Z,95.93
2022-11-10T18:56:16.749Z,96.25
2022-11-10T19:01:24.450Z,96.57
2022-11-10T19:06:31.883Z,97.20
2022-11-10T19:11:39.101Z,97.85
2022-11-10T19:16:46.720Z,97.59
2022-11-10T19:21:54.965Z,97.74
2022-11-10T19:27:02.127Z,98.39
2022-11-10T19:32:09.301Z,98.85
2022-11-10T19:37:16.498Z,98.91
2022-11-10T19:42:23.505Z,98.75
2022-11-10T19:47:30.915Z,98.76
2022-11-10T19:52:36.618Z,98.59
2022-11-10T19:57:44.427Z,98.81
2022-11-10T20:02:51.669Z,98.75
2022-11-10T20:08:15.906Z,98.99
2022-11-10T20:13:23.479Z,98.77
2022-11-10T20:18:30.882Z,98.63
2022-11-10T20:23:38.458Z,98.85
2022-11-10T20:28:46.688Z,98.71
2022-11-10T20:33:54.930Z,99.03
2022-11-10T20:39:02.245Z,99.19
2022-11-10T20:44:09.704Z,99.45
2022-11-10T20:49:16.885Z,99.43
2022-11-10T20:54:22.302Z,99.91
2022-11-10T20:59:30.224Z,99.84
2022-11-10T21:04:42.900Z,99.35
2022-11-10T21:09:50.701Z,99.22
2022-11-10T21:14:58.570Z,99.41
2022-11-10T21:20:06.212Z,99.11
2022-11-10T21:25:14.283Z,98.87
2022-11-10T21:30:24.294Z,98.91
2022-11-10T21:35:36.818Z,99.40
2022-11-10T21:40:45.403Z,98.91
2022-11-10T21:45:57.970Z,98.54
2022-11-10T21:51:06.092Z,98.63
2022-11-10T21:56:14.222Z,98.81
2022-11-10T22:01:21.572Z,98.69
2022-11-10T22:06:49.072Z,98.14
2022-11-10T22:12:13.845Z,98.25
2022-11-10T22:17:37.676Z,97.48
2022-11-10T22:22:45.548Z,97.26
2022-11-10T22:27:53.092Z,97.43
2022-11-10T22:33:21.524Z,97.16
2022-11-10T22:38:29.017Z,97.72
2022-11-10T22:43:53.711Z,97.41
2022-11-10T22:49:01.635Z,97.17
2022-11-10T22:54:12.941Z,97.75
2022-11-10T22:59:21.081Z,97.45
2022-11-10T23:04:28.660Z,98.41
2022-11-10T23:09:36.145Z,98.73
2022-11-10T23:14:43.028Z,98.15
2022-11-10T23:19:50.264Z,97.57
2022-11-10T23:24:57.824Z,98.07
2022-11-10T23:30:05.487Z,97.99
2022-11-10T23:35:14.460Z,97.29
2022-11-10T23:40:21.512Z,97.21
2022-11-10T23:45:52.668Z,97.34
2022-11-10T23:50:54.511Z,96.91
2022-11-10T23:56:03.591Z,96.30
